Time,TemperatureF,DewpointF,PressureIn,WindDirection,WindDirectionDegrees,WindSpeedMPH,WindSpeedGustMPH,Humidity,HourlyPrecipIn,Conditions,Clouds,dailyrainin,SoftwareType,DateUTC
2013-03-11 00:00:00,52.3,31.0,30.18,SSE,150,8.1,8.1,44,0.00,CLR,SCT,0.00,WeatherDisplay:10.37,2013-03-11 04:00:00,
2013-03-11 00:01:00,52.3,31.0,30.18,SSE,161,9.2,9.2,44,0.00,CLR,SCT,0.00,WeatherDisplay:10.37,2013-03-11 04:01:00,
2013-03-11 00:06:00,52.2,30.9,30.18,SSE,148,10.4,10.4,44,0.00,CLR,SCT,0.00,WeatherDisplay:10.37,2013-03-11 04:06:00,
2013-03-11 00:11:00,52.1,30.8,30.17,SSE,164,10.4,10.4,44,0.00,CLR,SCT,0.00,WeatherDisplay:10.37,2013-03-11 04:11:00,
2013-03-11 00:16:00,52.0,30.7,30.17,South,171,11.5,11.5,44,0.00,CLR,SCT,0.00,WeatherDisplay:10.37,2013-03-11 04:16:00,
2013-03-11 00:21:00,51.9,30.1,30.17,SSE,157,11.5,11.5,43,0.00,CLR,SCT,0.00,WeatherDisplay:10.37,2013-03-11 04:21:00,
2013-03-11 00:26:00,51.7,30.5,30.17,SSE,157,10.4,10.4,44,0.00,CLR,SCT,0.00,WeatherDisplay:10.37,2013-03-11 04:26:00,
2013-03-11 00:31:00,51.6,30.4,30.17,SSE,147,10.8,10.8,44,0.00,CLR,SCT,0.00,WeatherDisplay:10.37,2013-03-11 04:31:00,
2013-03-11 00:36:00,51.3,30.1,30.17,South,181,12.5,12.5,44,0.00,CLR,SCT,0.00,WeatherDisplay:10.37,2013-03-11 04:36:00,
2013-03-11 00:41:00,51.1,29.9,30.17,SSE,151,13.8,13.8,44,0.00,CLR,SCT,0.00,WeatherDisplay:10.37,2013-03-11 04:41:00,
2013-03-11 00:46:00,51.0,29.8,30.17,SSE,161,12.7,12.7,44,0.00,CLR,SCT,0.00,WeatherDisplay:10.37,2013-03-11 04:46:00,
2013-03-11 00:51:00,51.0,29.8,30.17,South,176,10.4,10.4,44,0.00,CLR,SCT,0.00,WeatherDisplay:10.37,2013-03-11 04:51:00,
2013-03-11 00:56:00,50.9,29.7,30.17,SSE,165,10.4,10.4,44,0.00,CLR,SCT,0.00,WeatherDisplay:10.37,2013-03-11 04:56:00,
2013-03-11 01:01:00,50.9,29.7,30.17,ESE,123,4.6,4.6,44,0.00,CLR,SCT,0.00,WeatherDisplay:10.37,2013-03-11 05:01:00,
2013-03-11 01:06:00,51.0,29.3,30.17,SSE,158,10.4,10.4,43,0.00,CLR,SCT,0.00,WeatherDisplay:10.37,2013-03-11 05:06:00,
2013-03-11 01:11:00,50.9,29.2,30.16,SSE,150,8.1,8.1,43,0.00,CLR,SCT,0.00,WeatherDisplay:10.37,2013-03-11 05:11:00,
2013-03-11 01:16:00,50.7,29.0,30.16,SSE,167,9.2,9.2,43,0.00,CLR,SCT,0.00,WeatherDisplay:10.37,2013-03-11 05:16:00,
2013-03-11 01:21:00,50.6,29.5,30.16,SSE,160,8.1,8.1,44,0.00,CLR,SCT,0.00,WeatherDisplay:10.37,2013-03-11 05:21:00,
2013-03-11 01:26:00,50.2,29.1,30.16,SSE,161,12.3,12.3,44,0.00,CLR,SCT,0.00,WeatherDisplay:10.37,2013-03-11 05:26:00,
2013-03-11 01:31:00,49.9,29.4,30.16,SSE,150,12.7,12.7,45,0.00,CLR,SCT,0.00,WeatherDisplay:10.37,2013-03-11 05:31:00,
2013-03-11 01:36:00,49.9,29.4,30.16,SSE,154,10.4,10.4,45,0.00,CLR,SCT,0.00,WeatherDisplay:10.37,2013-03-11 05:36:00,
2013-03-11 01:41:00,49.8,29.3,30.15,SSE,154,10.4,10.4,45,0.00,CLR,SCT,0.00,WeatherDisplay:10.37,2013-03-11 05:41:00,
2013-03-11 01:46:00,49.6,29.1,30.15,SSE,152,10.4,10.4,45,0.00,CLR,SCT,0.00,WeatherDisplay:10.37,2013-03-11 05:46:00,
2013-03-11 01:51:00,49.4,28.9,30.15,SSE,158,10.4,10.4,45,0.00,CLR,SCT,0.00,WeatherDisplay:10.37,2013-03-11 05:51:00,
2013-03-11 01:57:00,49.2,29.3,30.15,SSE,151,9.2,9.2,46,0.00,CLR,SCT,0.00,WeatherDisplay:10.37,2013-03-11 05:57:00,
2013-03-11 02:02:00,49.1,29.2,30.15,South,169,8.1,8.1,46,0.00,CLR,SCT,0.00,WeatherDisplay:10.37,2013-03-11 06:02:00,
2013-03-11 02:07:00,49.1,28.7,30.15,SSE,161,10.4,10.4,45,0.00,CLR,SCT,0.00,WeatherDisplay:10.37,2013-03-11 06:07:00,
2013-03-11 02:12:00,49.1,28.7,30.16,SSE,164,9.2,9.2,45,0.00,CLR,SCT,0.00,WeatherDisplay:10.37,2013-03-11 06:12:00,
2013-03-11 02:17:00,49.0,28.6,30.15,South,169,9.2,9.2,45,0.00,CLR,SCT,0.00,WeatherDisplay:10.37,2013-03-11 06:17:00,
2013-03-11 02:22:00,49.0,28.6,30.15,South,169,9.2,9.2,45,0.00,CLR,SCT,0.00,WeatherDisplay:10.37,2013-03-11 06:22:00,
2013-03-11 02:27:00,48.9,28.5,30.15,SE,144,10.4,10.4,45,0.00,CLR,SCT,0.00,WeatherDisplay:10.37,2013-03-11 06:27:00,
2013-03-11 02:32:00,48.7,28.3,30.15,SSE,161,10.4,10.4,45,0.00,CLR,SCT,0.00,WeatherDisplay:10.37,2013-03-11 06:32:00,
2013-03-11 02:37:00,48.7,28.8,30.15,SSE,155,9.6,9.6,46,0.00,CLR,SCT,0.00,WeatherDisplay:10.37,2013-03-11 06:37:00,
2013-03-11 02:42:00,48.6,28.7,30.15,SSE,158,12.7,12.7,46,0.00,CLR,SCT,0.00,WeatherDisplay:10.37,2013-03-11 06:42:00,
2013-03-11 02:47:00,48.3,28.5,30.15,SSE,158,10.4,10.4,46,0.00,CLR,SCT,0.00,WeatherDisplay:10.37,2013-03-11 06:47:00,
2013-03-11 02:52:00,48.2,28.4,30.14,SSE,157,11.5,11.5,46,0.00,CLR,SCT,0.00,WeatherDisplay:10.37,2013-03-11 06:52:00,
2013-03-11 02:57:00,48.3,28.5,30.14,SSE,158,11.5,11.5,46,0.00,CLR,SCT,0.00,WeatherDisplay:10.37,2013-03-11 06:57:00,
2013-03-11 03:02:00,48.6,28.2,30.14,SSE,165,10.4,10.4,45,0.00,CLR,SCT,0.00,WeatherDisplay:10.37,2013-03-11 07:02:00,
2013-03-11 03:07:00,48.4,28.0,30.15,SSE,167,6.9,7.0,45,0.00,CLR,SCT,0.00,WeatherDisplay:10.37,2013-03-11 07:07:00,
2013-03-11 03:12:00,48.4,28.0,30.14,SE,144,10.4,10.4,45,0.00,CLR,SCT,0.00,WeatherDisplay:10.37,2013-03-11 07:12:00,
2013-03-11 03:17:00,48.1,28.3,30.14,SSE,165,9.2,9.2,46,0.00,CLR,SCT,0.00,WeatherDisplay:10.37,2013-03-11 07:17:00,
2013-03-11 03:22:00,48.0,28.2,30.14,SSE,160,11.5,11.5,46,0.00,CLR,SCT,0.00,WeatherDisplay:10.37,2013-03-11 07:22:00,
2013-03-11 03:27:00,48.1,28.3,30.14,SSE,154,10.4,10.4,46,0.00,CLR,SCT,0.00,WeatherDisplay:10.37,2013-03-11 07:27:00,
2013-03-11 03:32:00,47.9,28.1,30.14,SSE,151,11.5,11.5,46,0.00,CLR,SCT,0.00,WeatherDisplay:10.37,2013-03-11 07:32:00,
2013-03-11 03:37:00,47.9,28.1,30.13,SSE,151,12.7,12.7,46,0.00,CLR,SCT,0.00,WeatherDisplay:10.37,2013-03-11 07:37:00,
2013-03-11 03:42:00,47.6,27.8,30.13,SSE,157,11.5,11.5,46,0.00,CLR,SCT,0.00,WeatherDisplay:10.37,2013-03-11 07:42:00,
2013-03-11 03:47:00,47.6,28.3,30.13,SE,145,10.4,10.4,47,0.00,CLR,SCT,0.00,WeatherDisplay:10.37,2013-03-11 07:47:00,
2013-03-11 03:52:00,47.6,28.3,30.12,SSE,152,11.5,11.5,47,0.00,CLR,SCT,0.00,WeatherDisplay:10.37,2013-03-11 07:52:00,
2013-03-11 03:57:00,47.3,28.1,30.12,SE,144,11.7,11.7,47,0.00,CLR,SCT,0.00,WeatherDisplay:10.37,2013-03-11 07:57:00,
2013-03-11 04:02:00,47.4,28.2,30.13,South,184,7.4,7.4,47,0.00,CLR,SCT,0.00,WeatherDisplay:10.37,2013-03-11 08:02:00,
2013-03-11 04:07:00,47.5,27.7,30.12,SSE,151,8.1,8.1,46,0.00,CLR,SCT,0.00,WeatherDisplay:10.37,2013-03-11 08:07:00,
2013-03-11 04:13:00,47.6,27.8,30.12,SSE,158,10.4,10.4,46,0.00,CLR,SCT,0.00,WeatherDisplay:10.37,2013-03-11 08:13:00,
2013-03-11 04:18:00,47.5,28.3,30.11,South,169,11.5,11.5,47,0.00,CLR,SCT,0.00,WeatherDisplay:10.37,2013-03-11 08:18:00,
2013-03-11 04:23:00,47.2,28.0,30.11,SSE,157,9.2,9.4,47,0.00,CLR,SCT,0.00,WeatherDisplay:10.37,2013-03-11 08:23:00,
2013-03-11 04:28:00,47.0,27.8,30.11,SSE,157,8.1,8.1,47,0.00,CLR,SCT,0.00,WeatherDisplay:10.37,2013-03-11 08:28:00,
2013-03-11 04:33:00,47.1,27.9,30.11,South,178,5.8,5.8,47,0.00,CLR,SCT,0.00,WeatherDisplay:10.37,2013-03-11 08:33:00,
2013-03-11 04:38:00,47.2,28.0,30.11,SSE,164,6.9,6.9,47,0.00,CLR,SCT,0.00,WeatherDisplay:10.37,2013-03-11 08:38:00,
2013-03-11 04:43:00,47.0,27.8,30.11,SSE,168,5.8,5.8,47,0.00,CLR,SCT,0.00,WeatherDisplay:10.37,2013-03-11 08:43:00,
2013-03-11 04:48:00,46.9,27.7,30.11,SSE,168,5.8,5.8,47,0.00,CLR,SCT,0.00,WeatherDisplay:10.37,2013-03-11 08:48:00,
2013-03-11 04:53:00,46.6,27.4,30.11,SSE,158,6.9,6.9,47,0.00,CLR,SCT,0.00,WeatherDisplay:10.37,2013-03-11 08:53:00,
2013-03-11 04:58:00,46.4,27.8,30.11,SSE,168,8.1,8.1,48,0.00,CLR,SCT,0.00,WeatherDisplay:10.37,2013-03-11 08:58:00,
2013-03-11 05:03:00,46.0,27.4,30.11,SSE,160,8.1,8.1,48,0.00,CLR,SCT,0.00,WeatherDisplay:10.37,2013-03-11 09:03:00,
2013-03-11 05:08:00,45.7,27.6,30.10,SSE,167,9.8,9.8,49,0.00,CLR,SCT,0.00,WeatherDisplay:10.37,2013-03-11 09:08:00,
2013-03-11 05:13:00,45.3,27.7,30.10,SSE,158,12.7,12.7,50,0.00,CLR,SCT,0.00,WeatherDisplay:10.37,2013-03-11 09:13:00,
2013-03-11 05:18:00,45.2,27.6,30.10,South,186,6.9,6.9,50,0.00,CLR,SCT,0.00,WeatherDisplay:10.37,2013-03-11 09:18:00,
2013-03-11 05:23:00,45.5,27.9,30.10,South,189,6.9,6.9,50,0.00,CLR,SCT,0.00,WeatherDisplay:10.37,2013-03-11 09:23:00,
2013-03-11 05:28:00,45.5,27.9,30.10,South,172,8.1,8.1,50,0.00,CLR,SCT,0.00,WeatherDisplay:10.37,2013-03-11 09:28:00,
2013-03-11 05:33:00,45.6,28.0,30.10,South,174,6.9,6.9,50,0.00,CLR,SCT,0.00,WeatherDisplay:10.37,2013-03-11 09:33:00,
2013-03-11 05:38:00,45.5,27.4,30.10,South,171,4.6,4.6,49,0.00,CLR,SCT,0.00,WeatherDisplay:10.37,2013-03-11 09:38:00,
2013-03-11 05:43:00,45.6,27.5,30.10,South,191,5.2,5.2,49,0.00,CLR,SCT,0.00,WeatherDisplay:10.37,2013-03-11 09:43:00,
2013-03-11 05:48:00,45.5,27.4,30.10,SSW,202,0.0,0.0,49,0.00,CLR,SCT,0.00,WeatherDisplay:10.37,2013-03-11 09:48:00,
2013-03-11 05:53:00,45.7,27.6,30.10,East,85,4.6,4.6,49,0.00,CLR,SCT,0.00,WeatherDisplay:10.37,2013-03-11 09:53:00,
2013-03-11 05:58:00,45.8,27.7,30.11,South,181,1.1,1.1,49,0.00,CLR,SCT,0.00,WeatherDisplay:10.37,2013-03-11 09:58:00,
2013-03-11 06:03:00,45.8,27.7,30.11,South,182,6.9,6.9,49,0.00,CLR,SCT,0.00,WeatherDisplay:10.37,2013-03-11 10:03:00,
2013-03-11 06:08:00,45.7,27.6,30.10,SSE,164,9.2,9.2,49,0.00,CLR,SCT,0.00,WeatherDisplay:10.37,2013-03-11 10:08:00,
2013-03-11 06:13:00,45.3,27.7,30.10,SSE,161,10.4,10.4,50,0.00,CLR,SCT,0.00,WeatherDisplay:10.37,2013-03-11 10:13:00,
2013-03-11 06:18:00,45.4,27.8,30.10,SSE,164,8.1,8.1,50,0.00,CLR,SCT,0.00,WeatherDisplay:10.37,2013-03-11 10:18:00,
2013-03-11 06:23:00,45.2,27.6,30.10,SSE,155,10.4,10.4,50,0.00,CLR,SCT,0.00,WeatherDisplay:10.37,2013-03-11 10:23:00,
2013-03-11 06:28:00,45.0,27.5,30.10,South,174,9.2,9.2,50,0.00,CLR,SCT,0.00,WeatherDisplay:10.37,2013-03-11 10:28:00,
2013-03-11 06:33:00,44.9,27.4,30.10,SSE,161,8.1,8.1,50,0.00,CLR,SCT,0.00,WeatherDisplay:10.37,2013-03-11 10:33:00,
2013-03-11 06:38:00,44.8,27.8,30.10,SE,140,10.6,10.6,51,0.00,CLR,SCT,0.00,WeatherDisplay:10.37,2013-03-11 10:38:00,
2013-03-11 06:43:00,44.7,27.7,30.10,SSE,152,10.4,10.4,51,0.00,CLR,SCT,0.00,WeatherDisplay:10.37,2013-03-11 10:43:00,
2013-03-11 06:48:00,44.4,27.4,30.10,SSE,161,10.4,10.4,51,0.00,CLR,SCT,0.00,WeatherDisplay:10.37,2013-03-11 10:48:00,
2013-03-11 06:53:00,44.3,27.3,30.10,SSE,162,11.5,11.5,51,0.00,CLR,SCT,0.00,WeatherDisplay:10.37,2013-03-11 10:53:00,
2013-03-11 06:58:00,44.3,27.3,30.10,SSE,165,8.2,8.2,51,0.00,CLR,SCT,0.00,WeatherDisplay:10.37,2013-03-11 10:58:00,
2013-03-11 07:03:00,44.3,26.8,30.09,SSE,165,8.1,8.1,50,0.00,CLR,SCT,0.00,WeatherDisplay:10.37,2013-03-11 11:03:00,
2013-03-11 07:08:00,44.2,26.7,30.10,SE,143,9.2,9.2,50,0.00,CLR,SCT,0.00,WeatherDisplay:10.37,2013-03-11 11:08:00,
2013-03-11 07:13:00,44.1,26.6,30.10,SSE,155,9.2,9.2,50,0.00,CLR,SCT,0.00,WeatherDisplay:10.37,2013-03-11 11:13:00,
2013-03-11 07:18:00,44.0,27.0,30.10,SSE,168,8.7,8.7,51,0.00,CLR,SCT,0.00,WeatherDisplay:10.37,2013-03-11 11:18:00,
2013-03-11 07:23:00,44.0,27.0,30.10,SSE,167,10.4,10.4,51,0.00,CLR,SCT,0.00,WeatherDisplay:10.37,2013-03-11 11:23:00,
2013-03-11 07:28:00,43.8,26.8,30.10,SSE,154,12.7,12.7,51,0.00,CLR,SCT,0.00,WeatherDisplay:10.37,2013-03-11 11:28:00,
2013-03-11 07:33:00,43.6,26.6,30.10,SSE,160,11.5,11.5,51,0.00,CLR,SCT,0.00,WeatherDisplay:10.37,2013-03-11 11:33:00,
2013-03-11 07:38:00,43.9,26.0,30.10,SSE,152,10.4,10.4,49,0.00,CLR,SCT,0.00,WeatherDisplay:10.37,2013-03-11 11:38:00,
2013-03-11 07:43:00,44.0,26.0,30.11,SSE,162,8.1,8.1,49,0.00,CLR,SCT,0.00,WeatherDisplay:10.37,2013-03-11 11:43:00,
2013-03-11 07:48:00,44.0,26.0,30.10,SSE,155,9.2,9.2,49,0.00,CLR,SCT,0.00,WeatherDisplay:10.37,2013-03-11 11:48:00,
2013-03-11 07:53:00,44.0,25.5,30.10,SSE,157,12.7,12.7,48,0.00,CLR,SCT,0.00,WeatherDisplay:10.37,2013-03-11 11:53:00,
2013-03-11 07:58:00,44.3,25.8,30.10,SSE,164,9.2,9.2,48,0.00,CLR,SCT,0.00,WeatherDisplay:10.37,2013-03-11 11:58:00,
2013-03-11 08:03:00,44.2,25.7,30.09,SSE,155,10.4,10.4,48,0.00,CLR,SCT,0.00,WeatherDisplay:10.37,2013-03-11 12:03:00,
2013-03-11 08:08:00,44.2,26.2,30.09,SSE,151,10.4,10.4,49,0.00,CLR,SCT,0.00,WeatherDisplay:10.37,2013-03-11 12:08:00,
2013-03-11 08:13:00,43.9,26.0,30.09,SSE,165,11.5,11.5,49,0.00,CLR,SCT,0.00,WeatherDisplay:10.37,2013-03-11 12:13:00,
2013-03-11 08:18:00,43.9,26.4,30.09,SSE,151,11.5,11.5,50,0.00,CLR,SCT,0.00,WeatherDisplay:10.37,2013-03-11 12:18:00,
2013-03-11 08:23:00,43.8,26.3,30.08,SSE,157,10.4,10.4,50,0.00,CLR,SCT,0.00,WeatherDisplay:10.37,2013-03-11 12:23:00,
2013-03-11 08:28:00,43.7,26.7,30.09,SSE,158,8.1,8.1,51,0.00,CLR,SCT,0.00,WeatherDisplay:10.37,2013-03-11 12:28:00,
2013-03-11 08:33:00,43.6,26.6,30.10,South,186,9.2,9.2,51,0.00,CLR,SCT,0.00,WeatherDisplay:10.37,2013-03-11 12:33:00,
2013-03-11 08:38:00,43.7,26.3,30.09,SSE,157,11.5,11.5,50,0.00,CLR,SCT,0.00,WeatherDisplay:10.37,2013-03-11 12:38:00,
2013-03-11 08:43:00,43.6,26.2,30.10,South,172,10.4,10.4,50,0.00,CLR,SCT,0.00,WeatherDisplay:10.37,2013-03-11 12:43:00,
2013-03-11 08:48:00,43.9,26.4,30.10,SSE,151,10.4,10.9,50,0.00,CLR,SCT,0.00,WeatherDisplay:10.37,2013-03-11 12:48:00,
2013-03-11 08:53:00,43.9,26.0,30.10,SE,144,5.8,5.8,49,0.00,CLR,SCT,0.00,WeatherDisplay:10.37,2013-03-11 12:53:00,
2013-03-11 08:58:00,44.0,26.0,30.10,SSE,167,6.3,6.3,49,0.00,CLR,SCT,0.00,WeatherDisplay:10.37,2013-03-11 12:58:00,
2013-03-11 09:03:00,44.0,26.0,30.10,SSE,157,6.9,6.9,49,0.00,CLR,SCT,0.00,WeatherDisplay:10.37,2013-03-11 13:03:00,
2013-03-11 09:08:00,44.0,26.5,30.11,SSE,164,9.2,9.2,50,0.00,CLR,SCT,0.00,WeatherDisplay:10.37,2013-03-11 13:08:00,
2013-03-11 09:13:00,44.1,26.6,30.11,SE,145,10.4,10.4,50,0.00,CLR,SCT,0.00,WeatherDisplay:10.37,2013-03-11 13:13:00,
2013-03-11 09:18:00,44.0,26.0,30.11,SSE,165,7.6,7.6,49,0.00,CLR,SCT,0.00,WeatherDisplay:10.37,2013-03-11 13:18:00,
2013-03-11 09:23:00,44.2,26.2,30.11,SSE,148,6.9,6.9,49,0.00,CLR,SCT,0.00,WeatherDisplay:10.37,2013-03-11 13:23:00,
2013-03-11 09:28:00,44.2,26.7,30.11,SSE,165,9.2,9.2,50,0.00,CLR,SCT,0.00,WeatherDisplay:10.37,2013-03-11 13:28:00,
2013-03-11 09:33:00,44.2,26.7,30.11,SSE,150,5.8,5.9,50,0.00,CLR,SCT,0.00,WeatherDisplay:10.37,2013-03-11 13:33:00,
2013-03-11 09:39:00,44.1,26.6,30.11,SSE,150,6.9,6.9,50,0.00,CLR,SCT,0.00,WeatherDisplay:10.37,2013-03-11 13:39:00,
2013-03-11 09:44:00,44.2,27.7,30.11,SSE,157,9.2,9.2,52,0.00,CLR,SCT,0.00,WeatherDisplay:10.37,2013-03-11 13:44:00,
2013-03-11 09:49:00,44.3,27.8,30.11,SE,143,9.2,9.2,52,0.00,CLR,SCT,0.00,WeatherDisplay:10.37,2013-03-11 13:49:00,
2013-03-11 09:54:00,44.5,27.5,30.11,SSE,148,9.2,9.2,51,0.00,CLR,SCT,0.00,WeatherDisplay:10.37,2013-03-11 13:54:00,
2013-03-11 09:59:00,44.9,27.8,30.11,SSE,161,8.1,8.1,51,0.00,CLR,SCT,0.00,WeatherDisplay:10.37,2013-03-11 13:59:00,
2013-03-11 10:04:00,45.2,27.2,30.11,SE,141,9.4,9.4,49,0.00,CLR,SCT,0.00,WeatherDisplay:10.37,2013-03-11 14:04:00,
2013-03-11 10:09:00,45.5,27.4,30.11,SSE,164,8.1,8.1,49,0.00,CLR,SCT,0.00,WeatherDisplay:10.37,2013-03-11 14:09:00,
2013-03-11 10:14:00,45.5,27.4,30.11,SSE,161,9.2,9.2,49,0.00,CLR,SCT,0.00,WeatherDisplay:10.37,2013-03-11 14:14:00,
2013-03-11 10:19:00,45.7,27.1,30.11,SSE,158,8.1,8.1,48,0.00,CLR,SCT,0.00,WeatherDisplay:10.37,2013-03-11 14:19:00,
2013-03-11 10:24:00,45.7,27.6,30.11,SE,140,9.2,9.2,49,0.00,CLR,SCT,0.00,WeatherDisplay:10.37,2013-03-11 14:24:00,
2013-03-11 10:29:00,45.8,28.2,30.11,South,184,11.5,11.5,50,0.00,CLR,SCT,0.00,WeatherDisplay:10.37,2013-03-11 14:29:00,
2013-03-11 10:34:00,46.0,28.4,30.10,SE,131,9.2,9.2,50,0.00,CLR,SCT,0.00,WeatherDisplay:10.37,2013-03-11 14:34:00,
2013-03-11 10:39:00,45.7,28.6,30.10,SE,140,10.4,10.4,51,0.00,CLR,SCT,0.00,WeatherDisplay:10.37,2013-03-11 14:39:00,
2013-03-11 10:44:00,45.6,28.5,30.10,SE,144,8.1,8.1,51,0.00,CLR,SCT,0.00,WeatherDisplay:10.37,2013-03-11 14:44:00,
2013-03-11 10:49:00,45.5,28.4,30.10,ESE,121,4.6,4.6,51,0.00,CLR,SCT,0.00,WeatherDisplay:10.37,2013-03-11 14:49:00,
2013-03-11 10:54:00,45.6,28.5,30.10,SE,131,4.6,4.6,51,0.00,CLR,SCT,0.00,WeatherDisplay:10.37,2013-03-11 14:54:00,
2013-03-11 10:59:00,45.7,28.1,30.10,SSE,162,5.8,5.8,50,0.00,CLR,SCT,0.00,WeatherDisplay:10.37,2013-03-11 14:59:00,
2013-03-11 11:04:00,45.8,28.2,30.10,SE,141,4.6,4.6,50,0.00,SCT,,0.00,WeatherDisplay:10.37,2013-03-11 15:04:00,
2013-03-11 11:09:00,45.9,28.3,30.10,East,80,5.8,5.8,50,0.00,SCT,,0.00,WeatherDisplay:10.37,2013-03-11 15:09:00,
2013-03-11 11:14:00,46.0,28.4,30.09,SSE,164,6.9,6.9,50,0.00,SCT,,0.00,WeatherDisplay:10.37,2013-03-11 15:14:00,
2013-03-11 11:19:00,46.4,28.8,30.09,SSE,155,10.4,10.4,50,0.00,SCT,,0.00,WeatherDisplay:10.37,2013-03-11 15:19:00,
2013-03-11 11:24:00,46.8,28.6,30.09,SSE,167,13.3,13.3,49,0.00,SCT,,0.00,WeatherDisplay:10.37,2013-03-11 15:24:00,
2013-03-11 11:29:00,47.1,28.4,30.09,SSE,164,9.2,9.2,48,0.00,SCT,,0.00,WeatherDisplay:10.37,2013-03-11 15:29:00,
2013-03-11 11:34:00,47.7,28.9,30.08,SSE,157,8.6,8.6,48,0.00,SCT,,0.00,WeatherDisplay:10.37,2013-03-11 15:34:00,
2013-03-11 11:39:00,48.4,29.1,30.08,South,179,8.1,8.1,47,0.00,SCT,,0.00,WeatherDisplay:10.37,2013-03-11 15:39:00,
2013-03-11 11:44:00,48.6,29.3,30.07,South,191,6.9,6.9,47,0.00,SCT,,0.00,WeatherDisplay:10.37,2013-03-11 15:44:00,
2013-03-11 11:49:00,48.9,29.5,30.07,SE,124,11.5,11.5,47,0.00,SCT,,0.00,WeatherDisplay:10.37,2013-03-11 15:49:00,
2013-03-11 11:54:00,48.9,30.1,30.07,SE,140,16.8,16.8,48,0.00,SCT,,0.00,WeatherDisplay:10.37,2013-03-11 15:54:00,
2013-03-11 11:59:00,48.9,30.6,30.07,SE,137,15.2,15.2,49,0.00,SCT,,0.00,WeatherDisplay:10.37,2013-03-11 15:59:00,
2013-03-11 12:04:00,49.0,30.7,30.08,SSE,151,10.4,10.4,49,0.00,BKN,SCT,0.00,WeatherDisplay:10.37,2013-03-11 16:04:00,
2013-03-11 12:09:00,49.1,30.2,30.07,SSE,154,20.2,20.2,48,0.00,BKN,SCT,0.00,WeatherDisplay:10.37,2013-03-11 16:09:00,
2013-03-11 12:14:00,49.1,30.7,30.07,SSE,161,17.3,17.3,49,0.00,BKN,SCT,0.00,WeatherDisplay:10.37,2013-03-11 16:14:00,
2013-03-11 12:19:00,49.6,31.7,30.07,SSE,158,18.6,18.6,50,0.00,BKN,SCT,0.00,WeatherDisplay:10.37,2013-03-11 16:19:00,
2013-03-11 12:24:00,49.8,31.9,30.06,SSE,147,16.1,16.1,50,0.00,BKN,SCT,0.00,WeatherDisplay:10.37,2013-03-11 16:24:00,
2013-03-11 12:29:00,49.9,32.0,30.07,SE,126,16.1,16.1,50,0.00,BKN,SCT,0.00,WeatherDisplay:10.37,2013-03-11 16:29:00,
2013-03-11 12:34:00,49.7,32.3,30.07,SSE,158,19.6,19.6,51,0.00,BKN,SCT,0.00,WeatherDisplay:10.37,2013-03-11 16:34:00,
2013-03-11 12:39:00,49.5,32.1,30.06,SSE,150,18.4,18.4,51,0.00,BKN,SCT,0.00,WeatherDisplay:10.37,2013-03-11 16:39:00,
2013-03-11 12:44:00,49.6,33.2,30.06,SSE,158,18.4,18.4,53,0.00,BKN,SCT,0.00,WeatherDisplay:10.37,2013-03-11 16:44:00,
2013-03-11 12:49:00,49.6,34.1,30.06,SSE,167,18.4,18.4,55,0.00,BKN,SCT,0.00,WeatherDisplay:10.37,2013-03-11 16:49:00,
2013-03-11 12:54:00,49.9,34.8,30.06,SSE,148,16.8,16.8,56,0.00,BKN,SCT,0.00,WeatherDisplay:10.37,2013-03-11 16:54:00,
2013-03-11 12:59:00,49.7,35.1,30.05,SSE,147,21.9,21.9,57,0.00,BKN,SCT,0.00,WeatherDisplay:10.37,2013-03-11 16:59:00,
2013-03-11 13:04:00,49.8,36.5,30.04,SE,131,18.4,18.4,60,0.00,SCT,,0.00,WeatherDisplay:10.37,2013-03-11 17:04:00,
2013-03-11 13:09:00,49.8,37.7,30.04,SSE,155,20.7,20.7,63,0.00,SCT,,0.00,WeatherDisplay:10.37,2013-03-11 17:09:00,
2013-03-11 13:14:00,50.0,38.7,30.03,SSE,154,21.9,21.9,65,0.00,SCT,,0.00,WeatherDisplay:10.37,2013-03-11 17:14:00,
2013-03-11 13:19:00,50.1,39.6,30.04,SSE,164,23.0,23.0,67,0.00,SCT,,0.00,WeatherDisplay:10.37,2013-03-11 17:19:00,
2013-03-11 13:24:00,50.2,40.0,30.04,SE,143,21.9,21.9,68,0.00,SCT,,0.00,WeatherDisplay:10.37,2013-03-11 17:24:00,
2013-03-11 13:29:00,50.3,40.1,30.03,SE,141,19.6,19.6,68,0.00,SCT,,0.00,WeatherDisplay:10.37,2013-03-11 17:29:00,
2013-03-11 13:34:00,50.3,40.1,30.03,SSE,160,20.7,20.7,68,0.00,SCT,,0.00,WeatherDisplay:10.37,2013-03-11 17:34:00,
2013-03-11 13:39:00,50.4,40.6,30.03,SE,144,18.4,18.4,69,0.00,SCT,,0.00,WeatherDisplay:10.37,2013-03-11 17:39:00,
2013-03-11 13:44:00,50.4,40.6,30.03,SSE,154,17.3,17.3,69,0.00,SCT,,0.00,WeatherDisplay:10.37,2013-03-11 17:44:00,
2013-03-11 13:49:00,50.4,41.0,30.03,SSE,152,15.0,15.0,70,0.00,SCT,,0.00,WeatherDisplay:10.37,2013-03-11 17:49:00,
2013-03-11 13:54:00,50.6,40.8,30.03,SE,136,15.0,15.0,69,0.00,SCT,,0.00,WeatherDisplay:10.37,2013-03-11 17:54:00,
2013-03-11 13:59:00,50.7,41.3,30.03,SSE,164,19.6,19.6,70,0.00,SCT,,0.00,WeatherDisplay:10.37,2013-03-11 17:59:00,
2013-03-11 14:04:00,50.6,41.2,30.03,SSE,160,17.3,17.3,70,0.00,SCT,,0.00,WeatherDisplay:10.37,2013-03-11 18:04:00,
2013-03-11 14:09:00,50.6,41.2,30.02,SE,141,18.6,18.6,70,0.00,SCT,,0.00,WeatherDisplay:10.37,2013-03-11 18:09:00,
2013-03-11 14:14:00,50.6,41.2,30.02,SSE,161,20.7,20.7,70,0.00,SCT,,0.00,WeatherDisplay:10.37,2013-03-11 18:14:00,
2013-03-11 14:19:00,50.6,41.5,30.03,South,181,17.3,17.3,71,0.00,SCT,,0.00,WeatherDisplay:10.37,2013-03-11 18:19:00,
2013-03-11 14:24:00,50.5,41.4,30.03,SE,128,19.6,19.6,71,0.00,SCT,,0.00,WeatherDisplay:10.37,2013-03-11 18:24:00,
2013-03-11 14:29:00,50.6,41.5,30.02,SE,145,18.4,18.4,71,0.00,SCT,,0.00,WeatherDisplay:10.37,2013-03-11 18:29:00,
2013-03-11 14:34:00,50.5,41.4,30.01,SSE,155,13.8,13.8,71,0.00,SCT,,0.00,WeatherDisplay:10.37,2013-03-11 18:34:00,
2013-03-11 14:39:00,50.6,41.5,30.01,SE,143,11.5,11.5,71,0.00,SCT,,0.00,WeatherDisplay:10.37,2013-03-11 18:39:00,
2013-03-11 14:44:00,50.5,41.8,30.01,SSE,147,15.0,15.0,72,0.00,SCT,,0.00,WeatherDisplay:10.37,2013-03-11 18:44:00,
2013-03-11 14:49:00,50.4,41.7,30.01,SSE,157,11.5,11.5,72,0.00,SCT,,0.00,WeatherDisplay:10.37,2013-03-11 18:49:00,
2013-03-11 14:54:00,50.6,41.9,30.01,SE,144,16.1,16.1,72,0.00,SCT,,0.00,WeatherDisplay:10.37,2013-03-11 18:54:00,
2013-03-11 15:00:00,50.7,42.0,30.00,SSE,167,9.9,9.9,72,0.00,SCT,,0.00,WeatherDisplay:10.37,2013-03-11 19:00:00,
2013-03-11 15:05:00,51.0,42.3,30.00,SSE,164,10.4,10.4,72,0.00,SCT,,0.00,WeatherDisplay:10.37,2013-03-11 19:05:00,
2013-03-11 15:10:00,51.0,42.3,30.00,South,178,13.8,13.8,72,0.00,SCT,,0.00,WeatherDisplay:10.37,2013-03-11 19:10:00,
2013-03-11 15:15:00,51.1,42.4,29.99,South,176,13.8,13.8,72,0.00,SCT,,0.00,WeatherDisplay:10.37,2013-03-11 19:15:00,
2013-03-11 15:20:00,51.2,42.5,29.99,SSE,152,12.7,12.7,72,0.00,SCT,,0.00,WeatherDisplay:10.37,2013-03-11 19:20:00,
2013-03-11 15:25:00,51.2,42.5,29.99,SE,143,12.7,12.7,72,0.00,SCT,,0.00,WeatherDisplay:10.37,2013-03-11 19:25:00,
2013-03-11 15:30:00,51.2,42.5,29.99,SSE,158,13.8,13.8,72,0.00,SCT,,0.00,WeatherDisplay:10.37,2013-03-11 19:30:00,
2013-03-11 15:35:00,51.3,42.6,29.98,SSE,160,7.0,9.0,72,0.00,SCT,SCT,0.00,WeatherDisplay:10.37,2013-03-11 19:35:00,
2013-03-11 15:40:00,51.4,42.7,29.97,SSE,158,6.0,9.0,72,0.00,SCT,SCT,0.00,WeatherDisplay:10.37,2013-03-11 19:40:00,
2013-03-11 15:45:00,51.4,42.7,29.97,SSE,160,11.5,11.5,72,0.00,SCT,,0.00,WeatherDisplay:10.37,2013-03-11 19:45:00,
2013-03-11 15:50:00,51.6,42.9,29.97,SSE,162,9.2,9.2,72,0.00,SCT,,0.00,WeatherDisplay:10.37,2013-03-11 19:50:00,
2013-03-11 15:55:00,51.5,42.8,29.97,South,172,6.1,6.2,72,0.00,SCT,,0.00,WeatherDisplay:10.37,2013-03-11 19:55:00,
2013-03-11 16:00:00,51.4,43.0,29.97,SSE,157,8.1,8.1,73,0.00,SCT,,0.00,WeatherDisplay:10.37,2013-03-11 20:00:00,
2013-03-11 16:05:00,51.5,43.1,29.97,SSE,157,10.4,10.4,73,0.00,OVC,SCT,0.00,WeatherDisplay:10.37,2013-03-11 20:05:00,
2013-03-11 16:10:00,51.7,43.3,29.96,SSE,157,8.1,8.1,73,0.00,OVC,SCT,0.00,WeatherDisplay:10.37,2013-03-11 20:10:00,
2013-03-11 16:15:00,51.7,43.3,29.96,SSE,155,8.1,8.1,73,0.00,OVC,SCT,0.00,WeatherDisplay:10.37,2013-03-11 20:15:00,
2013-03-11 16:20:00,51.7,43.3,29.97,SSE,164,8.1,8.1,73,0.00,OVC,SCT,0.00,WeatherDisplay:10.37,2013-03-11 20:20:00,
2013-03-11 16:25:00,51.9,43.5,29.97,South,174,2.4,2.4,73,0.00,OVC,SCT,0.00,WeatherDisplay:10.37,2013-03-11 20:25:00,
2013-03-11 16:30:00,52.1,43.7,29.98,WSW,243,0.0,0.0,73,0.00,OVC,SCT,0.00,WeatherDisplay:10.37,2013-03-11 20:30:00,
2013-03-11 16:35:00,52.2,43.8,29.97,ESE,113,2.3,2.3,73,0.00,OVC,SCT,0.00,WeatherDisplay:10.37,2013-03-11 20:35:00,
2013-03-11 16:40:00,52.2,44.2,29.96,South,176,5.8,5.8,74,0.00,OVC,SCT,0.00,WeatherDisplay:10.37,2013-03-11 20:40:00,
2013-03-11 16:45:00,52.3,44.3,29.95,SSE,152,4.6,4.6,74,0.00,OVC,SCT,0.00,WeatherDisplay:10.37,2013-03-11 20:45:00,
2013-03-11 16:50:00,52.3,44.3,29.94,SSE,157,5.8,5.8,74,0.00,OVC,SCT,0.00,WeatherDisplay:10.37,2013-03-11 20:50:00,
2013-03-11 16:55:00,52.2,44.2,29.94,SE,144,4.6,4.6,74,0.00,OVC,SCT,0.00,WeatherDisplay:10.37,2013-03-11 20:55:00,
2013-03-11 17:00:00,52.3,44.3,29.95,South,182,3.5,3.5,74,0.00,OVC,SCT,0.00,WeatherDisplay:10.37,2013-03-11 21:00:00,
2013-03-11 17:05:00,52.2,44.2,29.94,ESE,114,3.5,3.5,74,0.00,OVC,SCT,0.00,WeatherDisplay:10.37,2013-03-11 21:05:00,
2013-03-11 17:10:00,52.3,44.3,29.94,ESE,121,1.1,1.1,74,0.00,OVC,SCT,0.00,WeatherDisplay:10.37,2013-03-11 21:10:00,
2013-03-11 17:15:00,52.4,44.4,29.95,NE,49,1.1,1.1,74,0.00,OVC,SCT,0.00,WeatherDisplay:10.37,2013-03-11 21:15:00,
2013-03-11 17:20:00,52.4,44.4,29.94,SE,124,0.0,0.0,74,0.00,OVC,SCT,0.00,WeatherDisplay:10.37,2013-03-11 21:20:00,
2013-03-11 17:25:00,52.4,44.4,29.93,SSE,152,4.6,4.6,74,0.00,OVC,SCT,0.00,WeatherDisplay:10.37,2013-03-11 21:25:00,
2013-03-11 17:30:00,52.4,44.4,29.94,South,185,2.3,2.3,74,0.00,OVC,SCT,0.00,WeatherDisplay:10.37,2013-03-11 21:30:00,
2013-03-11 17:35:00,52.2,44.2,29.93,SE,127,3.5,3.5,74,0.00,OVC,SCT,0.00,WeatherDisplay:10.37,2013-03-11 21:35:00,
2013-03-11 17:40:00,52.3,44.3,29.92,SSE,158,5.8,5.8,74,0.00,OVC,SCT,0.00,WeatherDisplay:10.37,2013-03-11 21:40:00,
2013-03-11 17:45:00,52.1,44.4,29.91,SSE,154,5.9,5.9,75,0.00,OVC,SCT,0.00,WeatherDisplay:10.37,2013-03-11 21:45:00,
2013-03-11 17:50:00,52.2,44.5,29.91,SE,127,6.9,6.9,75,0.00,OVC,SCT,0.00,WeatherDisplay:10.37,2013-03-11 21:50:00,
2013-03-11 17:55:00,52.1,44.8,29.93,NE,47,1.1,1.1,76,0.00,OVC,SCT,0.00,WeatherDisplay:10.37,2013-03-11 21:55:00,
2013-03-11 18:00:00,52.0,44.7,29.93,SE,134,3.5,3.5,76,0.00,OVC,SCT,0.00,WeatherDisplay:10.37,2013-03-11 22:00:00,
2013-03-11 18:05:00,51.9,44.6,29.93,SE,141,2.3,2.3,76,0.00,OVC,SCT,0.00,WeatherDisplay:10.37,2013-03-11 22:05:00,
2013-03-11 18:10:00,51.9,44.6,29.93,ENE,62,0.0,0.0,76,0.00,OVC,SCT,0.00,WeatherDisplay:10.37,2013-03-11 22:10:00,
2013-03-11 18:15:00,51.9,44.9,29.93,ESE,114,3.5,3.5,77,0.00,OVC,SCT,0.00,WeatherDisplay:10.37,2013-03-11 22:15:00,
2013-03-11 18:20:00,51.9,44.9,29.93,East,90,2.2,2.2,77,0.00,OVC,SCT,0.00,WeatherDisplay:10.37,2013-03-11 22:20:00,
2013-03-11 18:25:00,51.8,44.8,29.92,East,93,3.5,3.5,77,0.00,OVC,SCT,0.00,WeatherDisplay:10.37,2013-03-11 22:25:00,
2013-03-11 18:30:00,51.7,44.7,29.91,ENE,75,3.5,3.5,77,0.00,OVC,SCT,0.00,WeatherDisplay:10.37,2013-03-11 22:30:00,
2013-03-11 18:35:00,51.7,44.7,29.91,ENE,59,3.5,3.5,77,0.00,OVC,SCT,0.00,WeatherDisplay:10.37,2013-03-11 22:35:00,
2013-03-11 18:40:00,51.7,44.7,29.92,ENE,71,0.0,0.2,77,0.00,OVC,SCT,0.00,WeatherDisplay:10.37,2013-03-11 22:40:00,
2013-03-11 18:45:00,51.7,45.1,29.92,East,85,2.3,2.3,78,0.00,OVC,SCT,0.00,WeatherDisplay:10.37,2013-03-11 22:45:00,
2013-03-11 18:50:00,51.7,45.1,29.91,ENE,71,2.7,2.7,78,0.00,OVC,SCT,0.00,WeatherDisplay:10.37,2013-03-11 22:50:00,
2013-03-11 18:55:00,51.6,45.0,29.91,East,90,2.3,2.3,78,0.00,OVC,SCT,0.00,WeatherDisplay:10.37,2013-03-11 22:55:00,
2013-03-11 19:00:00,51.7,45.1,29.91,NNE,31,0.0,0.0,78,0.00,OVC,SCT,0.00,WeatherDisplay:10.37,2013-03-11 23:00:00,
2013-03-11 19:05:00,51.7,45.1,29.91,NNE,17,1.8,1.8,78,0.00,BKN,SCT,0.00,WeatherDisplay:10.37,2013-03-11 23:05:00,
2013-03-11 19:10:00,51.7,45.1,29.91,NE,52,2.7,2.7,78,0.00,BKN,SCT,0.00,WeatherDisplay:10.37,2013-03-11 23:10:00,
2013-03-11 19:15:00,51.7,45.1,29.92,SW,233,2.3,2.3,78,0.00,BKN,SCT,0.00,WeatherDisplay:10.37,2013-03-11 23:15:00,
2013-03-11 19:20:00,51.6,45.0,29.93,ENE,72,3.3,3.3,78,0.00,BKN,SCT,0.00,WeatherDisplay:10.37,2013-03-11 23:20:00,
2013-03-11 19:25:00,51.4,45.1,29.91,ENE,75,4.6,4.6,79,0.00,BKN,SCT,0.00,WeatherDisplay:10.37,2013-03-11 23:25:00,
2013-03-11 19:30:00,51.3,45.0,29.91,ENE,75,1.6,1.6,79,0.00,BKN,SCT,0.00,WeatherDisplay:10.37,2013-03-11 23:30:00,
2013-03-11 19:35:00,51.2,44.9,29.91,ESE,120,3.5,3.5,79,0.00,BKN,SCT,0.00,WeatherDisplay:10.37,2013-03-11 23:35:00,
2013-03-11 19:40:00,51.1,44.8,29.91,SSE,164,6.9,6.9,79,0.00,BKN,SCT,0.00,WeatherDisplay:10.37,2013-03-11 23:40:00,
2013-03-11 19:45:00,51.0,45.0,29.91,ESE,113,4.6,4.6,80,0.00,BKN,SCT,0.00,WeatherDisplay:10.37,2013-03-11 23:45:00,
2013-03-11 19:50:00,51.0,45.0,29.91,South,169,4.6,4.6,80,0.00,BKN,SCT,0.00,WeatherDisplay:10.37,2013-03-11 23:50:00,
2013-03-11 19:55:00,51.1,45.1,29.91,SSE,160,1.2,0.0,80,0.00,BKN,SCT,0.00,WeatherDisplay:10.37,2013-03-11 23:55:00,
2013-03-11 20:00:00,51.1,45.1,29.91,NW,306,0.0,0.0,80,0.00,BKN,SCT,0.00,WeatherDisplay:10.37,2013-03-12 00:00:00,
2013-03-11 20:05:00,51.1,45.1,29.92,WNW,301,2.3,2.3,80,0.00,OVC,SCT,0.00,WeatherDisplay:10.37,2013-03-12 00:05:00,
2013-03-11 20:10:00,51.0,45.4,29.92,East,86,3.5,3.5,81,0.00,OVC,SCT,0.00,WeatherDisplay:10.37,2013-03-12 00:10:00,
2013-03-11 20:15:00,50.7,45.1,29.91,ESE,120,4.6,4.6,81,0.00,OVC,SCT,0.00,WeatherDisplay:10.37,2013-03-12 00:15:00,
2013-03-11 20:20:00,50.6,45.3,29.90,South,172,8.1,8.1,82,0.00,OVC,SCT,0.00,WeatherDisplay:10.37,2013-03-12 00:20:00,
2013-03-11 20:25:00,50.5,45.2,29.90,SSE,158,10.4,10.4,82,0.00,OVC,SCT,0.00,WeatherDisplay:10.37,2013-03-12 00:25:00,
2013-03-11 20:30:00,50.6,45.6,29.90,SSE,152,2.3,0.0,83,0.00,OVC,SCT,0.00,WeatherDisplay:10.37,2013-03-12 00:30:00,
2013-03-11 20:35:00,50.8,45.5,29.90,SE,131,0.0,0.0,82,0.00,OVC,SCT,0.00,WeatherDisplay:10.37,2013-03-12 00:35:00,
2013-03-11 20:40:00,50.9,45.6,29.90,SE,131,0.0,0.0,82,0.00,OVC,SCT,0.00,WeatherDisplay:10.37,2013-03-12 00:40:00,
2013-03-11 20:45:00,51.0,45.7,29.90,South,169,5.8,5.8,82,0.00,OVC,SCT,0.00,WeatherDisplay:10.37,2013-03-12 00:45:00,
2013-03-11 20:50:00,51.0,45.7,29.89,South,186,9.2,9.2,82,0.00,OVC,SCT,0.00,WeatherDisplay:10.37,2013-03-12 00:50:00,
2013-03-11 20:55:00,51.3,46.0,29.90,South,169,4.6,4.6,82,0.00,OVC,SCT,0.00,WeatherDisplay:10.37,2013-03-12 00:55:00,
2013-03-11 21:00:00,51.5,46.2,29.90,SSW,195,0.0,0.0,82,0.00,OVC,SCT,0.00,WeatherDisplay:10.37,2013-03-12 01:00:00,
2013-03-11 21:05:00,51.6,46.3,29.88,SE,145,4.6,4.6,82,0.00,OVC,SCT,0.00,WeatherDisplay:10.37,2013-03-12 01:05:00,
2013-03-11 21:10:00,51.6,46.3,29.88,SE,141,9.4,9.6,82,0.00,OVC,SCT,0.00,WeatherDisplay:10.37,2013-03-12 01:10:00,
2013-03-11 21:15:00,51.8,46.5,29.88,SSE,150,20.7,20.7,82,0.00,OVC,SCT,0.00,WeatherDisplay:10.37,2013-03-12 01:15:00,
2013-03-11 21:20:00,52.5,47.2,29.87,SSE,165,10.4,10.4,82,0.00,OVC,SCT,0.00,WeatherDisplay:10.37,2013-03-12 01:20:00,
2013-03-11 21:25:00,52.7,47.4,29.88,SW,215,9.2,9.2,82,0.00,OVC,SCT,0.00,WeatherDisplay:10.37,2013-03-12 01:25:00,
2013-03-11 21:30:00,53.0,47.3,29.87,SSE,160,8.1,8.1,81,0.00,OVC,SCT,0.00,WeatherDisplay:10.37,2013-03-12 01:30:00,
2013-03-11 21:36:00,53.3,47.6,29.86,SE,144,14.9,14.9,81,0.00,OVC,SCT,0.00,WeatherDisplay:10.37,2013-03-12 01:36:00,
2013-03-11 21:41:00,53.6,47.9,29.86,SSE,148,18.4,18.4,81,0.00,OVC,SCT,0.00,WeatherDisplay:10.37,2013-03-12 01:41:00,
2013-03-11 21:46:00,54.2,48.2,29.87,SE,131,25.3,25.3,80,0.00,OVC,SCT,0.00,WeatherDisplay:10.37,2013-03-12 01:46:00,
2013-03-11 21:51:00,54.7,48.3,29.87,South,184,11.5,11.5,79,0.00,OVC,SCT,0.00,WeatherDisplay:10.37,2013-03-12 01:51:00,
2013-03-11 21:56:00,54.8,48.1,29.87,SE,140,18.4,18.4,78,0.00,OVC,SCT,0.00,WeatherDisplay:10.37,2013-03-12 01:56:00,
2013-03-11 22:01:00,54.8,48.1,29.87,SSE,165,17.3,17.3,78,0.00,OVC,SCT,0.00,WeatherDisplay:10.37,2013-03-12 02:01:00,
2013-03-11 22:06:00,54.9,48.2,29.87,South,189,19.6,19.6,78,0.00,OVC,SCT,0.00,WeatherDisplay:10.37,2013-03-12 02:06:00,
2013-03-11 22:11:00,54.8,48.4,29.86,SSE,155,17.3,17.3,79,0.00,OVC,SCT,0.00,WeatherDisplay:10.37,2013-03-12 02:11:00,
2013-03-11 22:16:00,54.8,48.4,29.86,South,169,13.8,13.8,79,0.00,OVC,SCT,0.00,WeatherDisplay:10.37,2013-03-12 02:16:00,
2013-03-11 22:21:00,54.9,48.5,29.86,SSE,155,18.4,18.4,79,0.00,OVC,SCT,0.00,WeatherDisplay:10.37,2013-03-12 02:21:00,
2013-03-11 22:26:00,55.1,48.7,29.86,South,184,18.4,18.4,79,0.00,OVC,SCT,0.00,WeatherDisplay:10.37,2013-03-12 02:26:00,
2013-03-11 22:31:00,55.3,48.6,29.87,SSE,160,19.6,19.6,78,0.00,OVC,SCT,0.00,WeatherDisplay:10.37,2013-03-12 02:31:00,
2013-03-11 22:36:00,55.5,48.8,29.87,South,176,19.6,19.6,78,0.00,OVC,SCT,0.00,WeatherDisplay:10.37,2013-03-12 02:36:00,
2013-03-11 22:41:00,55.5,48.8,29.87,SE,137,10.4,11.5,78,0.00,OVC,SCT,0.00,WeatherDisplay:10.37,2013-03-12 02:41:00,
2013-03-11 22:46:00,55.9,49.1,29.86,SSE,160,20.7,20.7,78,0.00,OVC,SCT,0.00,WeatherDisplay:10.37,2013-03-12 02:46:00,
2013-03-11 22:51:00,56.0,49.2,29.86,SE,143,23.0,23.0,78,0.00,OVC,SCT,0.00,WeatherDisplay:10.37,2013-03-12 02:51:00,
2013-03-11 22:56:00,56.1,49.0,29.86,SSE,157,33.4,33.4,77,0.00,OVC,SCT,0.00,WeatherDisplay:10.37,2013-03-12 02:56:00,
2013-03-11 23:01:00,56.1,49.0,29.86,SE,124,24.2,24.2,77,0.00,OVC,SCT,0.00,WeatherDisplay:10.37,2013-03-12 03:01:00,
2013-03-11 23:06:00,56.1,49.0,29.86,SSW,200,15.0,15.0,77,0.00,OVC,SCT,0.00,WeatherDisplay:10.37,2013-03-12 03:06:00,
2013-03-11 23:11:00,56.0,48.9,29.86,SSE,152,16.1,16.1,77,0.00,OVC,SCT,0.00,WeatherDisplay:10.37,2013-03-12 03:11:00,
2013-03-11 23:16:00,56.0,49.2,29.86,SSE,152,20.7,20.7,78,0.00,OVC,SCT,0.00,WeatherDisplay:10.37,2013-03-12 03:16:00,
2013-03-11 23:21:00,56.1,49.3,29.86,South,176,19.6,19.6,78,0.00,OVC,SCT,0.00,WeatherDisplay:10.37,2013-03-12 03:21:00,
2013-03-11 23:26:00,56.3,49.5,29.86,SSE,162,18.4,18.4,78,0.00,OVC,SCT,0.00,WeatherDisplay:10.37,2013-03-12 03:26:00,
2013-03-11 23:32:00,56.2,49.4,29.86,SSE,162,13.8,13.8,78,0.00,OVC,SCT,0.00,WeatherDisplay:10.37,2013-03-12 03:32:00,
2013-03-11 23:37:00,55.8,49.4,29.86,South,178,26.5,26.5,79,0.00,OVC,SCT,0.00,WeatherDisplay:10.37,2013-03-12 03:37:00,
2013-03-11 23:42:00,55.4,49.7,29.86,SSE,162,18.4,18.4,81,0.01,RA,SCT,0.01,WeatherDisplay:10.37,2013-03-12 03:42:00,
2013-03-11 23:47:00,55.0,49.9,29.86,SSE,155,18.4,18.4,83,0.01,RA,SCT,0.01,WeatherDisplay:10.37,2013-03-12 03:47:00,
2013-03-11 23:52:00,54.5,49.8,29.86,SSE,152,21.9,21.9,84,0.01,OVC,SCT,0.01,WeatherDisplay:10.37,2013-03-12 03:52:00,
2013-03-11 23:57:00,54.4,50.0,29.86,SSE,161,21.9,21.9,85,0.02,RA,SCT,0.02,WeatherDisplay:10.37,2013-03-12 03:57:00,